sensor_id;sensor_type;location;lat;lon;timestamp;P1;durP1;ratioP1;P2;durP2;ratioP2
51515;SDS011;37603;55.614;37.326;2023-02-02T00:02:38;25.6;;;17.4;;
51515;SDS011;37603;55.614;37.326;2023-02-02T00:08:37;23.9;;;16.4;;
51515;SDS011;37603;55.614;37.326;2023-02-02T00:14:35;24.3;;;16.9;;
51515;SDS011;37603;55.614;37.326;2023-02-02T00:20:34;22.7;;;16.6;;
51515;SDS011;37603;55.614;37.326;2023-02-02T00:26:32;25.0;;;17.0;;
51515;SDS011;37603;55.614;37.326;2023-02-02T00:32:31;24.5;;;17.5;;
51515;SDS011;37603;55.614;37.326;2023-02-02T00:38:30;25.2;;;17.8;;
51515;SDS011;37603;55.614;37.326;2023-02-02T00:44:28;26.5;;;18.1;;
51515;SDS011;37603;55.614;37.326;2023-02-02T00:50:27;25.0;;;17.4;;
51515;SDS011;37603;55.614;37.326;2023-02-02T00:56:26;26.0;;;18.0;;
51515;SDS011;37603;55.614;37.326;2023-02-02T01:02:24;27.1;;;18.3;;
51515;SDS011;37603;55.614;37.326;2023-02-02T01:08:23;24.6;;;17.3;;
51515;SDS011;37603;55.614;37.326;2023-02-02T01:14:21;25.3;;;17.3;;
51515;SDS011;37603;55.614;37.326;2023-02-02T01:20:20;25.2;;;16.4;;
51515;SDS011;37603;55.614;37.326;2023-02-02T01:26:19;21.1;;;8.3;;
51515;SDS011;37603;55.614;37.326;2023-02-02T01:32:17;24.0;;;17.1;;
51515;SDS011;37603;55.614;37.326;2023-02-02T01:38:16;24.4;;;17.8;;
51515;SDS011;37603;55.614;37.326;2023-02-02T01:50:14;25.8;;;17.3;;
51515;SDS011;37603;55.614;37.326;2023-02-02T01:56:13;27.2;;;17.6;;
51515;SDS011;37603;55.614;37.326;2023-02-02T02:02:10;26.1;;;16.8;;
51515;SDS011;37603;55.614;37.326;2023-02-02T02:08:11;24.6;;;16.6;;
51515;SDS011;37603;55.614;37.326;2023-02-02T02:14:08;22.9;;;16.3;;
51515;SDS011;37603;55.614;37.326;2023-02-02T02:26:12;23.7;;;15.7;;
51515;SDS011;37603;55.614;37.326;2023-02-02T02:32:05;24.3;;;15.6;;
51515;SDS011;37603;55.614;37.326;2023-02-02T02:38:03;22.5;;;15.6;;
51515;SDS011;37603;55.614;37.326;2023-02-02T02:44:03;25.0;;;16.5;;
51515;SDS011;37603;55.614;37.326;2023-02-02T02:56:00;25.3;;;16.2;;
51515;SDS011;37603;55.614;37.326;2023-02-02T03:02:01;23.5;;;16.2;;
51515;SDS011;37603;55.614;37.326;2023-02-02T03:13:54;23.6;;;15.2;;
51515;SDS011;37603;55.614;37.326;2023-02-02T03:19:52;21.8;;;15.0;;
51515;SDS011;37603;55.614;37.326;2023-02-02T03:25:51;22.1;;;14.8;;
51515;SDS011;37603;55.614;37.326;2023-02-02T03:31:50;20.9;;;14.6;;
51515;SDS011;37603;55.614;37.326;2023-02-02T03:37:48;20.4;;;14.2;;
51515;SDS011;37603;55.614;37.326;2023-02-02T03:43:47;19.3;;;13.4;;
51515;SDS011;37603;55.614;37.326;2023-02-02T03:49:45;21.1;;;14.5;;
51515;SDS011;37603;55.614;37.326;2023-02-02T03:55:44;20.7;;;14.3;;
51515;SDS011;37603;55.614;37.326;2023-02-02T04:01:43;16.6;;;7.2;;
51515;SDS011;37603;55.614;37.326;2023-02-02T04:07:41;21.0;;;14.3;;
51515;SDS011;37603;55.614;37.326;2023-02-02T04:13:40;22.1;;;15.1;;
51515;SDS011;37603;55.614;37.326;2023-02-02T04:19:38;22.0;;;15.3;;
51515;SDS011;37603;55.614;37.326;2023-02-02T04:25:37;23.2;;;15.3;;
51515;SDS011;37603;55.614;37.326;2023-02-02T04:31:36;22.7;;;15.3;;
51515;SDS011;37603;55.614;37.326;2023-02-02T04:37:34;24.4;;;15.9;;
51515;SDS011;37603;55.614;37.326;2023-02-02T04:43:33;23.1;;;15.6;;
51515;SDS011;37603;55.614;37.326;2023-02-02T04:49:31;25.4;;;16.7;;
51515;SDS011;37603;55.614;37.326;2023-02-02T04:55:30;23.0;;;15.9;;
51515;SDS011;37603;55.614;37.326;2023-02-02T05:01:28;24.1;;;16.0;;
51515;SDS011;37603;55.614;37.326;2023-02-02T05:07:27;25.6;;;16.5;;
51515;SDS011;37603;55.614;37.326;2023-02-02T05:13:26;19.9;;;7.7;;
51515;SDS011;37603;55.614;37.326;2023-02-02T05:19:24;24.9;;;16.7;;
51515;SDS011;37603;55.614;37.326;2023-02-02T05:25:23;25.3;;;16.5;;
51515;SDS011;37603;55.614;37.326;2023-02-02T05:31:21;27.6;;;18.2;;
51515;SDS011;37603;55.614;37.326;2023-02-02T05:37:20;27.2;;;17.7;;
51515;SDS011;37603;55.614;37.326;2023-02-02T05:43:18;20.4;;;9.0;;
51515;SDS011;37603;55.614;37.326;2023-02-02T05:49:17;26.8;;;18.2;;
51515;SDS011;37603;55.614;37.326;2023-02-02T05:55:16;28.9;;;19.2;;
51515;SDS011;37603;55.614;37.326;2023-02-02T06:01:14;32.9;;;20.1;;
51515;SDS011;37603;55.614;37.326;2023-02-02T06:07:13;28.9;;;18.8;;
51515;SDS011;37603;55.614;37.326;2023-02-02T06:13:11;27.0;;;18.7;;
51515;SDS011;37603;55.614;37.326;2023-02-02T06:19:10;28.1;;;18.9;;
51515;SDS011;37603;55.614;37.326;2023-02-02T06:25:09;27.2;;;18.2;;
51515;SDS011;37603;55.614;37.326;2023-02-02T06:31:08;30.4;;;19.6;;
51515;SDS011;37603;55.614;37.326;2023-02-02T06:37:07;27.1;;;18.2;;
51515;SDS011;37603;55.614;37.326;2023-02-02T06:49:03;27.8;;;18.7;;
51515;SDS011;37603;55.614;37.326;2023-02-02T06:55:02;28.4;;;18.3;;
51515;SDS011;37603;55.614;37.326;2023-02-02T07:06:59;28.3;;;18.6;;
51515;SDS011;37603;55.614;37.326;2023-02-02T07:12:57;26.2;;;17.8;;
51515;SDS011;37603;55.614;37.326;2023-02-02T07:18:56;27.3;;;18.9;;
51515;SDS011;37603;55.614;37.326;2023-02-02T07:24:55;26.5;;;18.5;;
51515;SDS011;37603;55.614;37.326;2023-02-02T07:30:53;25.6;;;17.2;;
51515;SDS011;37603;55.614;37.326;2023-02-02T07:36:52;26.1;;;17.7;;
51515;SDS011;37603;55.614;37.326;2023-02-02T07:42:50;25.9;;;17.8;;
51515;SDS011;37603;55.614;37.326;2023-02-02T07:48:52;25.4;;;17.5;;
51515;SDS011;37603;55.614;37.326;2023-02-02T07:54:48;24.5;;;17.0;;
51515;SDS011;37603;55.614;37.326;2023-02-02T08:00:46;19.0;;;8.6;;
51515;SDS011;37603;55.614;37.326;2023-02-02T08:06:45;23.9;;;16.5;;
51515;SDS011;37603;55.614;37.326;2023-02-02T08:12:44;26.5;;;17.7;;
51515;SDS011;37603;55.614;37.326;2023-02-02T08:18:42;22.5;;;16.4;;
51515;SDS011;37603;55.614;37.326;2023-02-02T08:24:41;22.9;;;16.4;;
51515;SDS011;37603;55.614;37.326;2023-02-02T08:30:40;23.1;;;16.6;;
51515;SDS011;37603;55.614;37.326;2023-02-02T08:36:38;22.9;;;16.5;;
51515;SDS011;37603;55.614;37.326;2023-02-02T08:42:37;21.0;;;15.7;;
51515;SDS011;37603;55.614;37.326;2023-02-02T08:48:36;20.9;;;15.8;;
51515;SDS011;37603;55.614;37.326;2023-02-02T08:54:34;22.3;;;15.9;;
51515;SDS011;37603;55.614;37.326;2023-02-02T09:00:33;22.6;;;15.8;;
51515;SDS011;37603;55.614;37.326;2023-02-02T09:06:33;21.3;;;15.1;;
51515;SDS011;37603;55.614;37.326;2023-02-02T09:12:30;22.6;;;15.8;;
51515;SDS011;37603;55.614;37.326;2023-02-02T09:18:29;20.5;;;15.0;;
51515;SDS011;37603;55.614;37.326;2023-02-02T09:24:28;20.1;;;14.5;;
51515;SDS011;37603;55.614;37.326;2023-02-02T09:30:27;20.2;;;14.5;;
51515;SDS011;37603;55.614;37.326;2023-02-02T09:36:25;19.2;;;14.1;;
51515;SDS011;37603;55.614;37.326;2023-02-02T09:42:28;18.9;;;14.0;;
51515;SDS011;37603;55.614;37.326;2023-02-02T09:48:25;19.1;;;14.0;;
51515;SDS011;37603;55.614;37.326;2023-02-02T09:54:22;19.8;;;14.3;;
51515;SDS011;37603;55.614;37.326;2023-02-02T10:00:24;19.7;;;14.0;;
51515;SDS011;37603;55.614;37.326;2023-02-02T10:06:23;20.5;;;15.2;;
51515;SDS011;37603;55.614;37.326;2023-02-02T10:12:22;20.8;;;15.7;;
51515;SDS011;37603;55.614;37.326;2023-02-02T10:18:18;21.1;;;15.6;;
51515;SDS011;37603;55.614;37.326;2023-02-02T10:24:16;22.2;;;15.6;;
51515;SDS011;37603;55.614;37.326;2023-02-02T10:30:15;21.9;;;16.4;;
51515;SDS011;37603;55.614;37.326;2023-02-02T10:36:14;22.2;;;16.0;;
51515;SDS011;37603;55.614;37.326;2023-02-02T10:48:13;23.7;;;15.9;;
51515;SDS011;37603;55.614;37.326;2023-02-02T10:54:14;23.4;;;16.8;;
51515;SDS011;37603;55.614;37.326;2023-02-02T11:06:06;23.5;;;17.0;;
51515;SDS011;37603;55.614;37.326;2023-02-02T11:12:08;21.7;;;15.8;;
51515;SDS011;37603;55.614;37.326;2023-02-02T11:24:04;20.0;;;14.2;;
51515;SDS011;37603;55.614;37.326;2023-02-02T11:30:09;21.1;;;14.7;;
51515;SDS011;37603;55.614;37.326;2023-02-02T11:36:01;22.8;;;16.0;;
51515;SDS011;37603;55.614;37.326;2023-02-02T11:41:59;19.8;;;15.2;;
51515;SDS011;37603;55.614;37.326;2023-02-02T11:47:59;20.6;;;15.3;;
51515;SDS011;37603;55.614;37.326;2023-02-02T11:54:00;20.3;;;14.2;;
51515;SDS011;37603;55.614;37.326;2023-02-02T12:05:54;19.1;;;14.6;;
51515;SDS011;37603;55.614;37.326;2023-02-02T12:11:55;20.7;;;14.8;;
51515;SDS011;37603;55.614;37.326;2023-02-02T12:17:54;19.9;;;14.2;;
51515;SDS011;37603;55.614;37.326;2023-02-02T12:23:53;19.5;;;13.7;;
51515;SDS011;37603;55.614;37.326;2023-02-02T12:29:53;20.0;;;14.7;;
51515;SDS011;37603;55.614;37.326;2023-02-02T12:35:52;21.4;;;14.6;;
51515;SDS011;37603;55.614;37.326;2023-02-02T12:41:52;17.8;;;13.6;;
51515;SDS011;37603;55.614;37.326;2023-02-02T12:47:47;20.5;;;14.4;;
51515;SDS011;37603;55.614;37.326;2023-02-02T12:53:50;20.2;;;14.3;;
51515;SDS011;37603;55.614;37.326;2023-02-02T12:59:47;21.6;;;15.2;;
51515;SDS011;37603;55.614;37.326;2023-02-02T13:05:44;20.0;;;14.2;;
51515;SDS011;37603;55.614;37.326;2023-02-02T13:11:40;22.4;;;14.8;;
51515;SDS011;37603;55.614;37.326;2023-02-02T13:17:39;22.2;;;15.9;;
51515;SDS011;37603;55.614;37.326;2023-02-02T13:29:37;23.4;;;16.4;;
51515;SDS011;37603;55.614;37.326;2023-02-02T13:35:35;22.2;;;15.9;;
51515;SDS011;37603;55.614;37.326;2023-02-02T13:41:33;24.4;;;17.3;;
51515;SDS011;37603;55.614;37.326;2023-02-02T13:47:34;23.1;;;16.9;;
51515;SDS011;37603;55.614;37.326;2023-02-02T13:53:35;22.1;;;16.1;;
51515;SDS011;37603;55.614;37.326;2023-02-02T13:59:34;23.9;;;16.4;;
51515;SDS011;37603;55.614;37.326;2023-02-02T14:05:28;26.1;;;17.6;;
51515;SDS011;37603;55.614;37.326;2023-02-02T14:11:27;25.2;;;17.5;;
51515;SDS011;37603;55.614;37.326;2023-02-02T14:41:21;26.1;;;18.4;;
51515;SDS011;37603;55.614;37.326;2023-02-02T14:53:20;27.4;;;18.9;;
51515;SDS011;37603;55.614;37.326;2023-02-02T14:59:16;26.2;;;18.3;;
51515;SDS011;37603;55.614;37.326;2023-02-02T15:11:13;30.1;;;20.0;;
51515;SDS011;37603;55.614;37.326;2023-02-02T15:17:15;28.3;;;19.7;;
51515;SDS011;37603;55.614;37.326;2023-02-02T15:23:15;29.3;;;19.6;;
51515;SDS011;37603;55.614;37.326;2023-02-02T15:29:12;28.2;;;19.8;;
51515;SDS011;37603;55.614;37.326;2023-02-02T15:35:10;28.6;;;19.5;;
51515;SDS011;37603;55.614;37.326;2023-02-02T15:41:11;29.2;;;19.6;;
51515;SDS011;37603;55.614;37.326;2023-02-02T15:47:05;29.4;;;20.3;;
51515;SDS011;37603;55.614;37.326;2023-02-02T15:53:04;26.7;;;19.4;;
51515;SDS011;37603;55.614;37.326;2023-02-02T15:59:14;31.4;;;22.1;;
51515;SDS011;37603;55.614;37.326;2023-02-02T16:05:06;33.9;;;23.9;;
51515;SDS011;37603;55.614;37.326;2023-02-02T16:11:01;31.4;;;21.6;;
51515;SDS011;37603;55.614;37.326;2023-02-02T16:17:08;29.9;;;21.0;;
51515;SDS011;37603;55.614;37.326;2023-02-02T16:22:58;31.0;;;21.5;;
51515;SDS011;37603;55.614;37.326;2023-02-02T16:28:56;31.5;;;21.8;;
51515;SDS011;37603;55.614;37.326;2023-02-02T16:34:55;28.5;;;20.3;;
51515;SDS011;37603;55.614;37.326;2023-02-02T16:41:02;28.2;;;19.5;;
51515;SDS011;37603;55.614;37.326;2023-02-02T16:46:52;27.7;;;19.5;;
51515;SDS011;37603;55.614;37.326;2023-02-02T16:52:51;27.2;;;19.7;;
51515;SDS011;37603;55.614;37.326;2023-02-02T16:58:50;26.8;;;19.8;;
51515;SDS011;37603;55.614;37.326;2023-02-02T17:04:49;25.9;;;18.5;;
51515;SDS011;37603;55.614;37.326;2023-02-02T17:10:47;23.0;;;9.7;;
51515;SDS011;37603;55.614;37.326;2023-02-02T17:16:46;26.2;;;18.5;;
51515;SDS011;37603;55.614;37.326;2023-02-02T17:22:45;27.7;;;19.5;;
51515;SDS011;37603;55.614;37.326;2023-02-02T17:28:43;27.0;;;19.3;;
51515;SDS011;37603;55.614;37.326;2023-02-02T17:34:41;26.8;;;19.2;;
51515;SDS011;37603;55.614;37.326;2023-02-02T17:40:40;25.5;;;19.2;;
51515;SDS011;37603;55.614;37.326;2023-02-02T17:46:39;26.3;;;18.7;;
51515;SDS011;37603;55.614;37.326;2023-02-02T17:52:37;26.9;;;18.8;;
51515;SDS011;37603;55.614;37.326;2023-02-02T17:58:36;25.7;;;18.8;;
51515;SDS011;37603;55.614;37.326;2023-02-02T18:04:35;26.3;;;18.8;;
51515;SDS011;37603;55.614;37.326;2023-02-02T18:10:33;26.9;;;18.7;;
51515;SDS011;37603;55.614;37.326;2023-02-02T18:16:32;28.3;;;19.5;;
51515;SDS011;37603;55.614;37.326;2023-02-02T18:22:31;29.2;;;20.1;;
51515;SDS011;37603;55.614;37.326;2023-02-02T18:28:29;28.2;;;19.7;;
51515;SDS011;37603;55.614;37.326;2023-02-02T18:34:28;29.6;;;20.2;;
51515;SDS011;37603;55.614;37.326;2023-02-02T18:40:26;28.0;;;20.7;;
51515;SDS011;37603;55.614;37.326;2023-02-02T18:46:25;27.7;;;20.3;;
51515;SDS011;37603;55.614;37.326;2023-02-02T18:52:24;30.2;;;21.3;;
51515;SDS011;37603;55.614;37.326;2023-02-02T18:58:22;27.7;;;20.1;;
51515;SDS011;37603;55.614;37.326;2023-02-02T19:04:21;28.5;;;20.6;;
51515;SDS011;37603;55.614;37.326;2023-02-02T19:10:20;29.8;;;21.4;;
51515;SDS011;37603;55.614;37.326;2023-02-02T19:16:20;29.2;;;20.9;;
51515;SDS011;37603;55.614;37.326;2023-02-02T19:22:18;29.7;;;21.7;;
51515;SDS011;37603;55.614;37.326;2023-02-02T19:28:18;30.1;;;22.1;;
51515;SDS011;37603;55.614;37.326;2023-02-02T19:34:15;30.8;;;21.6;;
51515;SDS011;37603;55.614;37.326;2023-02-02T19:40:15;30.3;;;21.7;;
51515;SDS011;37603;55.614;37.326;2023-02-02T19:46:14;32.6;;;23.1;;
51515;SDS011;37603;55.614;37.326;2023-02-02T19:52:13;34.2;;;23.1;;
51515;SDS011;37603;55.614;37.326;2023-02-02T19:58:11;34.3;;;22.8;;
51515;SDS011;37603;55.614;37.326;2023-02-02T20:04:09;33.5;;;23.0;;
51515;SDS011;37603;55.614;37.326;2023-02-02T20:10:13;32.2;;;22.6;;
51515;SDS011;37603;55.614;37.326;2023-02-02T20:16:05;34.9;;;24.1;;
51515;SDS011;37603;55.614;37.326;2023-02-02T20:22:05;33.8;;;23.4;;
51515;SDS011;37603;55.614;37.326;2023-02-02T20:28:06;36.5;;;24.7;;
51515;SDS011;37603;55.614;37.326;2023-02-02T20:34:01;33.4;;;23.6;;
51515;SDS011;37603;55.614;37.326;2023-02-02T20:40:00;34.0;;;23.8;;
51515;SDS011;37603;55.614;37.326;2023-02-02T20:45:58;33.4;;;23.3;;
51515;SDS011;37603;55.614;37.326;2023-02-02T20:51:58;36.5;;;24.5;;
51515;SDS011;37603;55.614;37.326;2023-02-02T20:57:55;34.4;;;24.3;;
51515;SDS011;37603;55.614;37.326;2023-02-02T21:03:54;35.8;;;24.1;;
51515;SDS011;37603;55.614;37.326;2023-02-02T21:09:52;35.1;;;23.5;;
51515;SDS011;37603;55.614;37.326;2023-02-02T21:15:51;33.6;;;23.5;;
51515;SDS011;37603;55.614;37.326;2023-02-02T21:21:50;36.5;;;25.0;;
51515;SDS011;37603;55.614;37.326;2023-02-02T21:27:48;35.6;;;24.6;;
51515;SDS011;37603;55.614;37.326;2023-02-02T21:33:47;34.9;;;24.5;;
51515;SDS011;37603;55.614;37.326;2023-02-02T21:39:46;35.3;;;24.5;;
51515;SDS011;37603;55.614;37.326;2023-02-02T21:45:47;34.2;;;24.4;;
51515;SDS011;37603;55.614;37.326;2023-02-02T21:51:43;36.0;;;23.6;;
51515;SDS011;37603;55.614;37.326;2023-02-02T21:57:42;34.3;;;24.1;;
51515;SDS011;37603;55.614;37.326;2023-02-02T22:03:40;32.9;;;23.0;;
51515;SDS011;37603;55.614;37.326;2023-02-02T22:09:40;31.5;;;23.0;;
51515;SDS011;37603;55.614;37.326;2023-02-02T22:15:38;33.0;;;22.6;;
51515;SDS011;37603;55.614;37.326;2023-02-02T22:21:36;32.5;;;22.5;;
51515;SDS011;37603;55.614;37.326;2023-02-02T22:27:37;32.2;;;22.6;;
51515;SDS011;37603;55.614;37.326;2023-02-02T22:33:33;24.3;;;10.8;;
51515;SDS011;37603;55.614;37.326;2023-02-02T22:39:32;31.7;;;22.7;;
51515;SDS011;37603;55.614;37.326;2023-02-02T22:45:31;34.6;;;22.6;;
51515;SDS011;37603;55.614;37.326;2023-02-02T22:51:29;35.2;;;23.7;;
51515;SDS011;37603;55.614;37.326;2023-02-02T22:57:28;34.0;;;23.2;;
51515;SDS011;37603;55.614;37.326;2023-02-02T23:03:27;33.8;;;23.6;;
51515;SDS011;37603;55.614;37.326;2023-02-02T23:09:25;35.6;;;23.5;;
51515;SDS011;37603;55.614;37.326;2023-02-02T23:15:24;35.8;;;23.7;;
51515;SDS011;37603;55.614;37.326;2023-02-02T23:21:23;37.8;;;24.8;;
51515;SDS011;37603;55.614;37.326;2023-02-02T23:27:21;35.3;;;24.2;;
51515;SDS011;37603;55.614;37.326;2023-02-02T23:33:20;36.8;;;24.8;;
51515;SDS011;37603;55.614;37.326;2023-02-02T23:39:19;40.2;;;26.5;;
51515;SDS011;37603;55.614;37.326;2023-02-02T23:45:17;37.4;;;25.2;;
51515;SDS011;37603;55.614;37.326;2023-02-02T23:51:16;40.4;;;26.7;;
51515;SDS011;37603;55.614;37.326;2023-02-02T23:57:14;39.2;;;26.0;;
